x

West Lake Ontario - Grimsby (45139) Wave Buoy

5:00pm - Wed 31st Aug 2016 All times are CDT. -5 hours from GMT.

  • Sig Wave height 1.0ft
  • Peak Period 3s
  • Wind
    11mph
  • Sea Temp 74°f
  • Air Temp 78°f
  • Sea Pressure 1011.8mb
  • West Lake Ontario - Grimsby
  • West Lake Ontario - Grimsby

More Historic Weather Station data

Upgrade to MSW Pro to gain access to the past 30 days of data for over 8000 Wavebouys and Weather Stations around the globe.

Join Pro

Comparision Forecast

View Surf forecast
   
Wed 08/31 5:00pm 1ft 3s 11
mph
1011.8mb 74f 78f
4:00pm 1ft 2s 13
mph
1011.4mb 74f 77f
3:00pm  -  2s 16 20 mph 1011mb 75f 79f
2:00pm  -  3s 4 7 mph 1011.4mb 75f 78f
1:00pm 0.3ft 2s 4 7 mph 1011.9mb 75f 78f
12:00pm  -  3s 9
mph
1012.3mb 74f 77f
11:00am 0.3ft 2s 4
mph
1013.1mb 74f 75f
10:00am 0.3ft 2s 9
mph
1013.5mb 74f 74f
9:00am 0.3ft 2s 11 13 mph 1013.6mb 73f 73f
8:00am 0.3ft 2s 9
mph
1013.5mb 73f 73f
7:00am 0.7ft 2s 7 9 mph 1014mb 73f 71f
6:00am 0.3ft 4s 13 16 mph 1013.8mb 73f 71f
5:00am 0.3ft 2s 11 13 mph 1013.9mb 73f 72f
4:00am 0.3ft 2s 9 11 mph 1013.9mb 73f 74f
3:00am 0.3ft 2s 9 11 mph 1014.1mb 73f 74f
2:00am 0.3ft 2s 7 9 mph 1014.7mb 73f 74f
1:00am 0.3ft 2s 7 9 mph 1014.7mb 73f 74f
12:00am 0.3ft 2s 4 7 mph 1014.9mb 73f 74f
Tue 08/30 11:00pm 0.3ft 2s 9 11 mph 1015.2mb 73f 75f
10:00pm 0.3ft 2s 9 11 mph 1015.6mb 73f 75f
9:00pm 0.3ft 2s 7 9 mph 1016mb 73f 75f
8:00pm 0.3ft 2s 9 11 mph 1016.2mb 74f 75f
7:00pm 0.3ft 2s 11
mph
1015.9mb 74f 77f
6:00pm 0.3ft 2s 7 9 mph 1016.3mb 75f 78f
5:00pm 0.7ft 2s 9 11 mph 1016.6mb 75f 79f
4:00pm 0.7ft 2s 13 16 mph 1016.7mb 75f 80f
3:00pm 0.3ft 2s 4 7 mph 1017mb 76f 80f
2:00pm  -  10s 9 11 mph 1017.4mb 77f 79f
1:00pm 0.3ft 4s 2
mph
1018.2mb 77f 79f
12:00pm  -  2s 4 7 mph 1019.1mb 77f 77f
11:00am  -  2s 2 4 mph 1019.9mb 76f 76f
10:00am  -  2s  -  2 mph 1020.3mb 75f 75f
9:00am  -  2s 4
mph
1020.9mb 74f 71f
8:00am  -  5s 4
mph
1021mb 73f 70f
7:00am  -  2s 4 7 mph 1021.4mb 73f 70f
6:00am  -  2s 4
mph
1021.3mb 73f 69f
5:00am  -  2s 4
mph
1021.2mb 73f 69f
4:00am  -  2s 7
mph
1021.4mb 73f 69f
3:00am 0.3ft 2s 7 9 mph 1021.4mb 73f 70f
2:00am  -  4s 7 9 mph 1021.7mb 73f 70f
1:00am  -  3s 7
mph
1021.7mb 73f 71f
12:00am  -  2s 4 7 mph 1021.8mb 73f 72f
Mon 08/29 11:00pm 0.3ft 3s 4 7 mph 1021.9mb 74f 73f
10:00pm 0.3ft 2s 4 7 mph 1022.2mb 74f 73f
9:00pm 0.3ft 2s 7
mph
1022.5mb 74f 74f
8:00pm 0.3ft 2s 4 7 mph 1022.4mb 74f 75f
7:00pm 0.3ft 2s 7 9 mph 1021.9mb 74f 75f
6:00pm 0.3ft 2s 7 9 mph 1021.8mb 74f 76f
5:00pm 0.3ft 2s 9 11 mph 1022.1mb 75f 76f
4:00pm 0.3ft 2s 9 11 mph 1022.4mb 75f 76f
3:00pm 0.3ft 2s 7
mph
1022.9mb 76f 76f
2:00pm 0.3ft 2s 4
mph
1023.3mb 76f 76f
1:00pm 0.3ft 3s 4
mph
1024.1mb 75f 74f
12:00pm 0.3ft 2s 4 7 mph 1024.2mb 76f 72f
11:00am 0.3ft 2s 2 4 mph 1024.6mb 75f 72f
10:00am 0.3ft 4s  -  2 mph 1024.8mb 74f 71f
9:00am 0.3ft 4s 4
mph
1024.7mb 73f 69f
8:00am 0.3ft 2s 7 9 mph 1024.5mb 73f 69f
7:00am 0.3ft 2s 7 9 mph 1024.1mb 73f 69f
6:00am 0.7ft 4s 7 9 mph 1024mb 72f 69f
5:00am 0.7ft 2s 9 11 mph 1023.4mb 72f 69f
4:00am 0.7ft 2s 11 13 mph 1022.8mb 72f 70f
3:00am 0.7ft 2s 11 13 mph 1022.8mb 73f 70f
2:00am 0.7ft 2s 11 13 mph 1022.4mb 73f 70f
1:00am 0.7ft 2s 11 16 mph 1022.2mb 73f 72f
12:00am 0.7ft 2s 11 13 mph 1022.4mb 73f 73f
Sun 08/28 11:00pm 1.3ft 3s 9 11 mph 1022.4mb 73f 74f
10:00pm 1ft 2s 13 16 mph 1021.9mb 73f 74f
9:00pm 0.7ft 2s 13 16 mph 1021.3mb 74f 76f
8:00pm 0.3ft 2s 9 11 mph 1020.8mb 74f 76f
7:00pm 0.3ft 2s 9
mph
1020mb 74f 77f
6:00pm 0.7ft 2s 9
mph
1019.2mb 74f 78f
5:00pm 0.7ft 2s 11 13 mph 1018.9mb 74f 79f
4:00pm 0.7ft 2s 9 11 mph 1019.4mb 75f 79f
3:00pm 0.7ft 3s 11
mph
1019.3mb 75f 80f
2:00pm 0.7ft 2s 9 13 mph 1019.5mb 75f 79f
1:00pm 0.3ft 4s 11 13 mph 1019.8mb 76f 80f
12:00pm 0.3ft 4s 2 4 mph 1020.2mb 76f 80f
11:00am 0.7ft 4s 2 4 mph 1020.2mb 77f 79f
10:00am 0.7ft 3s  -  2 mph 1020.6mb 75f 76f
9:00am 0.7ft 3s  -  mph 1020.7mb 74f 76f
8:00am 0.7ft 3s 4
mph
1020.8mb 73f 73f
7:00am 0.7ft 3s 4 7 mph 1020.6mb 73f 72f
6:00am 0.7ft 3s 9
mph
1020.3mb 73f 72f
5:00am 0.7ft 3s 4 7 mph 1020mb 73f 72f
4:00am 0.7ft 3s 2 4 mph 1019.5mb 73f 72f
3:00am 0.7ft 3s  -  mph 1019.1mb 73f 73f
2:00am 0.7ft 3s 4
mph
1019mb 73f 73f
1:00am 0.7ft 3s 7
mph
1019mb 73f 73f
12:00am 0.7ft 3s 4
mph
1019.6mb 73f 73f